Private Wetterstation Wechselburg
Wetterdaten: Sonntag, 17.01.2016
Datum Zeit Temp. +2m Bodentemp. Temp.+5cm Temp. Wind Windchill X Diff Temp. Feuchte +2m Feuchte +5cm Sonnenschein Luftdruck Regen Wind Richtung Richtung Sonnenschein Taupunkt Windchill Windben
17.01.2016 00:00 -2,1 C 22,4 C -0,8 C -1,4 C -1,4 C 0,7 C 85 % 90 % 0 % 1016,2 hPa 0,0 l/m 0,0 km/h (0 Bft) W-SW 247 0 min -4,3 C -1,4 C 0,0 km/h (0 Bft)
17.01.2016 00:05 -2,1 C 22,4 C -0,8 C -1,4 C -1,4 C 0,7 C 85 % 90 % 0 % 1016,2 hPa 0,0 l/m 0,3 km/h (0 Bft) W-SW 247 0 min -4,3 C -1,4 C 4,2 km/h (1 Bft)
17.01.2016 00:10 -2,1 C 22,3 C -0,7 C -1,2 C -1,2 C 0,9 C 85 % 90 % 0 % 1015,9 hPa 0,0 l/m 2,3 km/h (1 Bft) W-SW 247 0 min -4,3 C -1,2 C 4,2 km/h (1 Bft)
17.01.2016 00:15 -2,1 C 22,4 C -0,7 C -1,3 C -1,3 C 0,8 C 85 % 90 % 0 % 1015,9 hPa 0,0 l/m 2,4 km/h (1 Bft) W-SW 247 0 min -4,3 C -1,3 C 2,4 km/h (1 Bft)
17.01.2016 00:20 -2,0 C 22,3 C -0,7 C -1,2 C -1,2 C 0,8 C 85 % 90 % 0 % 1015,9 hPa 0,0 l/m 2,4 km/h (1 Bft) W 270 0 min -4,2 C -1,2 C 2,6 km/h (1 Bft)
17.01.2016 00:25 -2,0 C 22,3 C -0,7 C -1,2 C -1,2 C 0,8 C 85 % 90 % 0 % 1015,9 hPa 0,0 l/m 2,6 km/h (1 Bft) W-SW 247 0 min -4,2 C -1,2 C 4,3 km/h (1 Bft)
17.01.2016 00:30 -1,9 C 22,3 C -0,5 C -1,9 C -1,9 C 0,0 C 85 % 90 % 0 % 1016,4 hPa 0,0 l/m 3,7 km/h (1 Bft) SW 225 0 min -4,1 C -1,9 C 2,6 km/h (1 Bft)
17.01.2016 00:35 -1,9 C 22,3 C -0,5 C -2,0 C -2,1 C 0,0 C 85 % 90 % 0 % 1016,4 hPa 0,0 l/m 4,0 km/h (1 Bft) W 270 0 min -4,1 C -2,1 C 6,8 km/h (2 Bft)
17.01.2016 00:41 -1,9 C 22,2 C -0,5 C -1,7 C -1,7 C 0,2 C 85 % 90 % 0 % 1016,4 hPa 0,0 l/m 3,4 km/h (1 Bft) N 0 0 min -4,1 C -1,7 C 9,2 km/h (2 Bft)
17.01.2016 00:50 -1,7 C 22,2 C -0,5 C -0,9 C -0,9 C 0,8 C 85 % 90 % 0 % 1016,4 hPa 0,0 l/m 1,9 km/h (1 Bft) W 270 0 min -3,9 C -0,9 C 3,9 km/h (1 Bft)
17.01.2016 00:55 -1,7 C 22,2 C -0,5 C -0,9 C -0,9 C 0,8 C 85 % 90 % 0 % 1016,4 hPa 0,0 l/m 2,4 km/h (1 Bft) SW 225 0 min -3,9 C -0,9 C 4,5 km/h (1 Bft)
17.01.2016 01:00 -1,7 C 22,3 C -0,5 C -1,1 C -1,1 C 0,6 C 85 % 90 % 0 % 1016,4 hPa 0,0 l/m 2,7 km/h (1 Bft) SW 225 0 min -3,9 C -1,1 C 4,0 km/h (1 Bft)
17.01.2016 01:05 -1,8 C 22,3 C -0,5 C -0,8 C -0,8 C 1,0 C 85 % 90 % 0 % 1016,4 hPa 0,0 l/m 1,6 km/h (1 Bft) NW 315 0 min -4,0 C -0,8 C 0,0 km/h (0 Bft)
17.01.2016 01:10 -1,7 C 22,4 C -0,5 C -0,8 C -0,8 C 0,9 C 85 % 90 % 0 % 1016,4 hPa 0,0 l/m 0,8 km/h (0 Bft) W 270 0 min -3,9 C -0,8 C 0,0 km/h (0 Bft)
17.01.2016 01:15 -1,7 C 22,5 C -0,5 C -0,8 C -0,8 C 0,9 C 85 % 90 % 0 % 1016,4 hPa 0,0 l/m 0,8 km/h (0 Bft) W-SW 247 0 min -3,9 C -0,8 C 1,8 km/h (1 Bft)
17.01.2016 01:20 -1,7 C 22,5 C -0,5 C -0,7 C -0,7 C 1,0 C 86 % 90 % 0 % 1016,4 hPa 0,0 l/m 0,8 km/h (0 Bft) SW 225 0 min -3,7 C -0,7 C 0,0 km/h (0 Bft)
17.01.2016 01:25 -1,7 C 22,6 C -0,5 C -0,7 C -0,7 C 1,0 C 86 % 90 % 0 % 1016,4 hPa 0,0 l/m 0,8 km/h (0 Bft) N-NO 22 0 min -3,7 C -0,7 C 0,0 km/h (0 Bft)
17.01.2016 01:30 -1,7 C 22,6 C -0,4 C -0,7 C -0,7 C 1,0 C 86 % 90 % 0 % 1016,9 hPa 0,0 l/m 1,1 km/h (1 Bft) W-SW 247 0 min -3,7 C -0,7 C 1,9 km/h (1 Bft)
17.01.2016 01:35 -1,7 C 22,7 C -0,4 C -0,7 C -0,7 C 1,0 C 86 % 90 % 0 % 1016,9 hPa 0,0 l/m 1,1 km/h (1 Bft) SW 225 0 min -3,7 C -0,7 C 5,8 km/h (2 Bft)
17.01.2016 01:40 -1,7 C 22,7 C -0,4 C -0,7 C -0,7 C 1,0 C 86 % 90 % 0 % 1016,9 hPa 0,0 l/m 1,8 km/h (1 Bft) SW 225 0 min -3,7 C -0,7 C 3,2 km/h (1 Bft)
17.01.2016 01:45 -1,7 C 22,8 C -0,3 C -0,7 C -0,7 C 1,0 C 86 % 90 % 0 % 1016,9 hPa 0,0 l/m 1,4 km/h (1 Bft) W-SW 247 0 min -3,7 C -0,7 C 11,1 km/h (2 Bft)
17.01.2016 01:50 -1,7 C 22,8 C -0,5 C -0,8 C -0,8 C 0,9 C 86 % 90 % 0 % 1016,8 hPa 0,0 l/m 1,3 km/h (1 Bft) SO 135 0 min -3,7 C -0,8 C 0,0 km/h (0 Bft)
17.01.2016 01:55 -1,7 C 22,8 C -0,5 C -0,8 C -0,8 C 0,9 C 87 % 90 % 0 % 1016,8 hPa 0,0 l/m 1,4 km/h (1 Bft) S 180 0 min -3,6 C -0,8 C 0,0 km/h (0 Bft)
17.01.2016 02:00 -1,7 C 22,8 C -0,5 C -0,9 C -0,9 C 0,8 C 87 % 90 % 0 % 1016,8 hPa 0,0 l/m 1,1 km/h (1 Bft) S-SO 157 0 min -3,6 C -0,9 C 2,7 km/h (1 Bft)
17.01.2016 02:05 -1,7 C 22,7 C -0,5 C -0,9 C -0,9 C 0,8 C 87 % 90 % 0 % 1016,8 hPa 0,0 l/m 1,4 km/h (1 Bft) NO 45 0 min -3,6 C -0,9 C 5,8 km/h (2 Bft)
17.01.2016 02:10 -1,9 C 22,7 C -0,5 C -0,9 C -0,9 C 1,0 C 87 % 90 % 0 % 1016,7 hPa 0,0 l/m 1,9 km/h (1 Bft) S-SW 202 0 min -3,8 C -0,9 C 2,9 km/h (1 Bft)
17.01.2016 02:15 -1,9 C 22,7 C -0,6 C -1,0 C -1,0 C 0,9 C 87 % 90 % 0 % 1016,7 hPa 0,0 l/m 2,1 km/h (1 Bft) N-NW 337 0 min -3,8 C -1,0 C 3,4 km/h (1 Bft)
17.01.2016 02:20 -1,9 C 22,7 C -0,5 C -1,3 C -1,3 C 0,6 C 87 % 90 % 0 % 1016,7 hPa 0,0 l/m 2,7 km/h (1 Bft) N-NO 22 0 min -3,8 C -1,3 C 4,7 km/h (1 Bft)
17.01.2016 02:25 -2,0 C 22,7 C -0,5 C -1,0 C -1,0 C 1,0 C 87 % 90 % 0 % 1016,7 hPa 0,0 l/m 2,3 km/h (1 Bft) W-SW 247 0 min -3,9 C -1,0 C 6,1 km/h (2 Bft)
17.01.2016 02:30 -2,1 C 22,6 C -0,7 C -1,1 C -1,1 C 1,0 C 87 % 90 % 0 % 1016,9 hPa 0,0 l/m 2,3 km/h (1 Bft) N-NW 337 0 min -4,0 C -1,1 C 7,9 km/h (2 Bft)
17.01.2016 02:35 -2,1 C 22,7 C -0,7 C -1,2 C -1,2 C 0,9 C 87 % 90 % 0 % 1016,9 hPa 0,0 l/m 1,9 km/h (1 Bft) W-NW 292 0 min -4,0 C -1,2 C 4,3 km/h (1 Bft)
17.01.2016 02:40 -2,1 C 22,7 C -0,7 C -1,3 C -1,3 C 0,8 C 87 % 90 % 0 % 1016,9 hPa 0,0 l/m 1,9 km/h (1 Bft) SW 225 0 min -4,0 C -1,3 C 5,0 km/h (1 Bft)
17.01.2016 02:45 -2,1 C 22,6 C -0,9 C -1,3 C -1,3 C 0,8 C 87 % 90 % 0 % 1016,9 hPa 0,0 l/m 2,3 km/h (1 Bft) SO 135 0 min -4,0 C -1,3 C 3,4 km/h (1 Bft)
17.01.2016 02:50 -2,1 C 22,6 C -0,9 C -1,4 C -1,4 C 0,7 C 87 % 90 % 0 % 1016,8 hPa 0,0 l/m 2,1 km/h (1 Bft) W 270 0 min -4,0 C -1,4 C 2,6 km/h (1 Bft)
17.01.2016 02:55 -2,2 C 22,6 C -0,9 C -1,4 C -1,4 C 0,8 C 87 % 90 % 0 % 1016,8 hPa 0,0 l/m 1,8 km/h (1 Bft) O-SO 112 0 min -4,1 C -1,4 C 2,7 km/h (1 Bft)
17.01.2016 03:00 -2,1 C 22,6 C -0,9 C -1,4 C -1,4 C 0,7 C 87 % 90 % 0 % 1016,8 hPa 0,0 l/m 1,3 km/h (1 Bft) N-NW 337 0 min -4,0 C -1,4 C 3,2 km/h (1 Bft)
17.01.2016 03:05 -2,3 C 22,6 C -0,9 C -1,4 C -1,4 C 0,9 C 87 % 90 % 0 % 1016,8 hPa 0,0 l/m 1,3 km/h (1 Bft) S 180 0 min -4,2 C -1,4 C 1,8 km/h (1 Bft)
17.01.2016 03:10 -2,3 C 22,6 C -0,9 C -1,7 C -1,7 C 0,6 C 87 % 90 % 0 % 1016,8 hPa 0,0 l/m 2,6 km/h (1 Bft) S-SW 202 0 min -4,2 C -1,7 C 4,8 km/h (1 Bft)
17.01.2016 03:15 -2,3 C 22,5 C -1,0 C -2,1 C -2,1 C 0,2 C 87 % 90 % 0 % 1016,8 hPa 0,0 l/m 3,1 km/h (1 Bft) N-NW 337 0 min -4,2 C -2,1 C 2,9 km/h (1 Bft)
17.01.2016 03:20 -2,3 C 22,5 C -0,9 C -2,2 C -2,2 C 0,1 C 87 % 90 % 0 % 1016,8 hPa 0,0 l/m 3,4 km/h (1 Bft) N-NO 22 0 min -4,2 C -2,2 C 3,5 km/h (1 Bft)
17.01.2016 03:25 -2,4 C 22,5 C -1,1 C -2,2 C -2,2 C 0,2 C 87 % 90 % 0 % 1016,8 hPa 0,0 l/m 3,1 km/h (1 Bft) S 180 0 min -4,3 C -2,2 C 3,7 km/h (1 Bft)
17.01.2016 03:30 -2,5 C 22,5 C -1,1 C -1,9 C -1,9 C 0,6 C 87 % 90 % 0 % 1017,2 hPa 0,0 l/m 2,7 km/h (1 Bft) SW 225 0 min -4,4 C -1,9 C 2,7 km/h (1 Bft)
17.01.2016 03:35 -2,5 C 22,4 C -1,2 C -2,0 C -2,0 C 0,5 C 87 % 90 % 0 % 1017,2 hPa 0,0 l/m 2,7 km/h (1 Bft) W-SW 247 0 min -4,4 C -2,0 C 3,9 km/h (1 Bft)
17.01.2016 03:41 -2,5 C 22,4 C -1,3 C -1,7 C -1,7 C 0,8 C 87 % 90 % 0 % 1017,2 hPa 0,0 l/m 2,1 km/h (1 Bft) N 0 0 min -4,4 C -1,7 C 0,0 km/h (0 Bft)
17.01.2016 03:50 -2,5 C 22,4 C -1,3 C -1,8 C -1,8 C 0,7 C 87 % 90 % 0 % 1017,6 hPa 0,0 l/m 2,1 km/h (1 Bft) S 180 0 min -4,4 C -1,8 C 0,0 km/h (0 Bft)
17.01.2016 03:55 -2,7 C 22,4 C -1,3 C -1,8 C -1,8 C 0,9 C 87 % 90 % 0 % 1017,6 hPa 0,0 l/m 2,3 km/h (1 Bft) SW 225 0 min -4,6 C -1,8 C 8,2 km/h (2 Bft)
17.01.2016 04:00 -2,7 C 22,4 C -1,3 C -1,9 C -1,9 C 0,8 C 88 % 90 % 0 % 1017,6 hPa 0,0 l/m 1,9 km/h (1 Bft) W 270 0 min -4,4 C -1,9 C 2,4 km/h (1 Bft)
17.01.2016 04:05 -2,8 C 22,4 C -1,3 C -2,0 C -2,0 C 0,8 C 88 % 90 % 0 % 1017,6 hPa 0,0 l/m 2,3 km/h (1 Bft) S-SW 202 0 min -4,5 C -2,0 C 2,1 km/h (1 Bft)
17.01.2016 04:10 -2,8 C 22,4 C -1,3 C -2,0 C -2,0 C 0,8 C 88 % 90 % 0 % 1017,2 hPa 0,0 l/m 1,9 km/h (1 Bft) NO 45 0 min -4,5 C -2,0 C 0,0 km/h (0 Bft)
17.01.2016 04:15 -2,7 C 22,4 C -1,3 C -2,0 C -2,0 C 0,7 C 88 % 90 % 0 % 1017,2 hPa 0,0 l/m 1,8 km/h (1 Bft) SW 225 0 min -4,4 C -2,0 C 2,9 km/h (1 Bft)
17.01.2016 04:20 -2,9 C 22,3 C -1,3 C -2,0 C -2,0 C 0,9 C 88 % 90 % 0 % 1017,2 hPa 0,0 l/m 1,3 km/h (1 Bft) W-SW 247 0 min -4,6 C -2,0 C 2,3 km/h (1 Bft)
17.01.2016 04:25 -2,7 C 22,3 C -1,3 C -2,0 C -2,0 C 0,7 C 88 % 90 % 0 % 1017,2 hPa 0,0 l/m 1,0 km/h (0 Bft) O-SO 112 0 min -4,4 C -2,0 C 0,0 km/h (0 Bft)
17.01.2016 04:30 -2,7 C 22,3 C -1,4 C -2,0 C -2,0 C 0,7 C 88 % 90 % 0 % 1017,5 hPa 0,0 l/m 0,5 km/h (0 Bft) O-SO 112 0 min -4,4 C -2,0 C 0,0 km/h (0 Bft)
17.01.2016 04:35 -2,8 C 22,3 C -1,3 C -2,0 C -2,0 C 0,8 C 88 % 90 % 0 % 1017,5 hPa 0,0 l/m 0,3 km/h (0 Bft) S-SO 157 0 min -4,5 C -2,0 C 1,6 km/h (1 Bft)
17.01.2016 04:40 -2,8 C 22,3 C -1,4 C -1,9 C -1,9 C 0,9 C 88 % 90 % 0 % 1017,5 hPa 0,0 l/m 0,8 km/h (0 Bft) SW 225 0 min -4,5 C -1,9 C 1,6 km/h (1 Bft)
17.01.2016 04:45 -2,8 C 22,3 C -1,3 C -1,9 C -1,9 C 0,9 C 88 % 90 % 0 % 1017,5 hPa 0,0 l/m 1,1 km/h (1 Bft) SO 135 0 min -4,5 C -1,9 C 0,0 km/h (0 Bft)
17.01.2016 04:50 -2,8 C 22,3 C -1,3 C -1,9 C -1,9 C 0,9 C 88 % 90 % 0 % 1017,4 hPa 0,0 l/m 1,4 km/h (1 Bft) SW 225 0 min -4,5 C -1,9 C 1,6 km/h (1 Bft)
17.01.2016 04:55 -2,8 C 22,3 C -1,3 C -1,9 C -1,9 C 0,9 C 88 % 90 % 0 % 1017,4 hPa 0,0 l/m 1,1 km/h (1 Bft) SW 225 0 min -4,5 C -1,9 C 0,0 km/h (0 Bft)
17.01.2016 05:00 -2,7 C 22,3 C -1,3 C -1,8 C -1,8 C 0,9 C 88 % 90 % 0 % 1017,4 hPa 0,0 l/m 1,0 km/h (0 Bft) W-SW 247 0 min -4,4 C -1,8 C 3,1 km/h (1 Bft)
17.01.2016 05:05 -2,7 C 22,3 C -1,3 C -1,8 C -1,8 C 0,9 C 88 % 90 % 0 % 1017,4 hPa 0,0 l/m 1,9 km/h (1 Bft) SW 225 0 min -4,4 C -1,8 C 3,4 km/h (1 Bft)
17.01.2016 05:10 -2,7 C 22,3 C -1,4 C -2,1 C -2,1 C 0,6 C 88 % 90 % 0 % 1017,2 hPa 0,0 l/m 2,4 km/h (1 Bft) S 180 0 min -4,4 C -2,1 C 2,6 km/h (1 Bft)
17.01.2016 05:15 -2,8 C 22,2 C -1,3 C -2,2 C -2,2 C 0,6 C 88 % 90 % 0 % 1017,2 hPa 0,0 l/m 2,6 km/h (1 Bft) W 270 0 min -4,5 C -2,2 C 5,8 km/h (2 Bft)
17.01.2016 05:20 -2,9 C 22,2 C -1,5 C -2,0 C -2,0 C 0,9 C 88 % 90 % 0 % 1017,2 hPa 0,0 l/m 2,3 km/h (1 Bft) SW 225 0 min -4,6 C -2,0 C 3,5 km/h (1 Bft)
17.01.2016 05:25 -2,9 C 22,2 C -1,5 C -2,0 C -2,0 C 0,9 C 88 % 90 % 0 % 1017,2 hPa 0,0 l/m 1,9 km/h (1 Bft) S 180 0 min -4,6 C -2,0 C 3,1 km/h (1 Bft)
17.01.2016 05:30 -2,9 C 22,2 C -1,5 C -2,0 C -2,0 C 0,9 C 88 % 90 % 0 % 1017,6 hPa 0,0 l/m 1,8 km/h (1 Bft) W 270 0 min -4,6 C -2,0 C 3,1 km/h (1 Bft)
17.01.2016 05:35 -2,9 C 22,2 C -1,5 C -2,0 C -2,0 C 0,9 C 88 % 90 % 0 % 1017,6 hPa 0,0 l/m 2,1 km/h (1 Bft) SW 225 0 min -4,6 C -2,0 C 3,7 km/h (1 Bft)
17.01.2016 05:40 -2,9 C 22,2 C -1,5 C -2,0 C -2,0 C 0,9 C 88 % 90 % 0 % 1017,6 hPa 0,0 l/m 1,9 km/h (1 Bft) W-SW 247 0 min -4,6 C -2,0 C 3,2 km/h (1 Bft)
17.01.2016 05:45 -2,9 C 22,2 C -1,5 C -2,0 C -2,0 C 0,9 C 88 % 90 % 0 % 1017,6 hPa 0,0 l/m 1,8 km/h (1 Bft) W-SW 247 0 min -4,6 C -2,0 C 1,8 km/h (1 Bft)
17.01.2016 05:50 -2,9 C 22,2 C -1,6 C -2,0 C -2,0 C 0,9 C 88 % 90 % 0 % 1017,6 hPa 0,0 l/m 1,6 km/h (1 Bft) N-NW 337 0 min -4,6 C -2,0 C 3,1 km/h (1 Bft)
17.01.2016 05:55 -2,9 C 22,2 C -1,6 C -2,1 C -2,1 C 0,8 C 88 % 90 % 0 % 1017,6 hPa 0,0 l/m 2,1 km/h (1 Bft) S 180 0 min -4,6 C -2,1 C 3,2 km/h (1 Bft)
17.01.2016 06:00 -2,9 C 22,2 C -1,6 C -2,1 C -2,1 C 0,8 C 88 % 90 % 0 % 1017,6 hPa 0,0 l/m 2,1 km/h (1 Bft) S 180 0 min -4,6 C -2,1 C 3,2 km/h (1 Bft)
17.01.2016 06:05 -2,9 C 22,2 C -1,6 C -2,1 C -2,1 C 0,8 C 88 % 90 % 0 % 1017,6 hPa 0,0 l/m 1,6 km/h (1 Bft) W 270 0 min -4,6 C -2,1 C 0,0 km/h (0 Bft)
17.01.2016 06:10 -2,9 C 22,2 C -1,7 C -2,2 C -2,2 C 0,7 C 88 % 90 % 0 % 1017,8 hPa 0,0 l/m 0,5 km/h (0 Bft) W-SW 247 0 min -4,6 C -2,2 C 0,0 km/h (0 Bft)
17.01.2016 06:15 -2,9 C 22,2 C -1,7 C -2,2 C -2,2 C 0,7 C 88 % 90 % 0 % 1017,8 hPa 0,0 l/m 1,0 km/h (0 Bft) SW 225 0 min -4,6 C -2,2 C 2,7 km/h (1 Bft)
17.01.2016 06:20 -2,9 C 22,2 C -1,7 C -2,2 C -2,2 C 0,7 C 89 % 90 % 0 % 1017,8 hPa 0,0 l/m 1,9 km/h (1 Bft) SW 225 0 min -4,5 C -2,2 C 3,9 km/h (1 Bft)
17.01.2016 06:25 -2,9 C 22,2 C -1,7 C -2,2 C -2,2 C 0,7 C 88 % 90 % 0 % 1017,8 hPa 0,0 l/m 1,6 km/h (1 Bft) S-SO 157 0 min -4,6 C -2,2 C 0,0 km/h (0 Bft)
17.01.2016 06:30 -2,9 C 22,2 C -1,7 C -2,2 C -2,2 C 0,7 C 88 % 90 % 0 % 1017,2 hPa 0,0 l/m 1,9 km/h (1 Bft) SW 225 0 min -4,6 C -2,2 C 2,7 km/h (1 Bft)
17.01.2016 06:35 -3,1 C 22,2 C -1,7 C -2,2 C -2,2 C 0,9 C 88 % 90 % 0 % 1017,2 hPa 0,0 l/m 2,1 km/h (1 Bft) NW 315 0 min -4,8 C -2,2 C 2,3 km/h (1 Bft)
17.01.2016 06:41 -3,1 C 22,1 C -1,7 C -2,3 C -2,3 C 0,8 C 88 % 90 % 0 % 1017,2 hPa 0,0 l/m 2,3 km/h (1 Bft) N 0 0 min -4,8 C -2,3 C 0,0 km/h (0 Bft)
17.01.2016 06:50 -3,2 C 22,1 C -1,7 C -2,4 C -2,4 C 0,8 C 88 % 90 % 0 % 1017,2 hPa 0,0 l/m 1,8 km/h (1 Bft) W-SW 247 0 min -4,9 C -2,4 C 1,9 km/h (1 Bft)
17.01.2016 06:55 -3,2 C 22,1 C -1,9 C -2,5 C -2,5 C 0,7 C 88 % 90 % 0 % 1017,2 hPa 0,0 l/m 2,1 km/h (1 Bft) S-SW 202 0 min -4,9 C -2,5 C 0,0 km/h (0 Bft)
17.01.2016 07:00 -3,3 C 22,1 C -2,0 C -2,6 C -2,6 C 0,7 C 88 % 90 % 0 % 1017,2 hPa 0,0 l/m 1,8 km/h (1 Bft) W-SW 247 0 min -5,0 C -2,6 C 2,3 km/h (1 Bft)
17.01.2016 07:05 -3,3 C 22,1 C -2,1 C -2,6 C -2,6 C 0,7 C 88 % 90 % 0 % 1017,2 hPa 0,0 l/m 1,8 km/h (1 Bft) S-SW 202 0 min -5,0 C -2,6 C 2,1 km/h (1 Bft)
17.01.2016 07:10 -3,3 C 22,1 C -2,1 C -2,7 C -2,7 C 0,6 C 88 % 90 % 0 % 1017,4 hPa 0,0 l/m 1,8 km/h (1 Bft) W-SW 247 0 min -5,0 C -2,7 C 3,1 km/h (1 Bft)
17.01.2016 07:15 -3,4 C 22,1 C -2,2 C -2,8 C -2,8 C 0,6 C 88 % 90 % 0 % 1017,4 hPa 0,0 l/m 1,6 km/h (1 Bft) SW 225 0 min -5,1 C -2,8 C 2,4 km/h (1 Bft)
17.01.2016 07:20 -3,3 C 22,1 C -2,1 C -2,9 C -2,9 C 0,4 C 88 % 90 % 0 % 1017,4 hPa 0,0 l/m 1,0 km/h (0 Bft) W-NW 292 0 min -5,0 C -2,9 C 1,8 km/h (1 Bft)
17.01.2016 07:25 -3,5 C 22,1 C -2,1 C -2,9 C -2,9 C 0,6 C 88 % 90 % 0 % 1017,4 hPa 0,0 l/m 0,8 km/h (0 Bft) NW 315 0 min -5,2 C -2,9 C 0,0 km/h (0 Bft)
17.01.2016 07:30 -3,5 C 22,1 C -2,1 C -2,9 C -2,9 C 0,6 C 88 % 90 % 0 % 1017,8 hPa 0,0 l/m 0,6 km/h (0 Bft) O-SO 112 0 min -5,2 C -2,9 C 1,8 km/h (1 Bft)
17.01.2016 07:35 -3,5 C 22,1 C -2,2 C -2,9 C -2,9 C 0,6 C 88 % 90 % 0 % 1017,8 hPa 0,0 l/m 0,2 km/h (0 Bft) S 180 0 min -5,2 C -2,9 C 0,0 km/h (0 Bft)
17.01.2016 07:40 -3,5 C 22,1 C -2,1 C -2,9 C -2,9 C 0,6 C 88 % 90 % 0 % 1017,8 hPa 0,0 l/m 0,2 km/h (0 Bft) W 270 0 min -5,2 C -2,9 C 1,9 km/h (1 Bft)
17.01.2016 07:45 -3,5 C 22,1 C -2,1 C -2,8 C -2,8 C 0,7 C 88 % 90 % 0 % 1017,8 hPa 0,0 l/m 0,2 km/h (0 Bft) SW 225 0 min -5,2 C -2,8 C 0,0 km/h (0 Bft)
17.01.2016 07:50 -3,5 C 22,1 C -2,1 C -2,8 C -2,8 C 0,7 C 88 % 90 % 0 % 1017,8 hPa 0,0 l/m 0,5 km/h (0 Bft) S-SW 202 0 min -5,2 C -2,8 C 0,0 km/h (0 Bft)
17.01.2016 07:55 -3,5 C 22,1 C -2,1 C -2,8 C -2,8 C 0,7 C 88 % 90 % 0 % 1017,8 hPa 0,0 l/m 0,5 km/h (0 Bft) SW 225 0 min -5,2 C -2,8 C 0,0 km/h (0 Bft)
17.01.2016 08:00 -3,5 C 22,1 C -2,1 C -2,7 C -2,7 C 0,8 C 88 % 90 % 0 % 1017,8 hPa 0,0 l/m 0,2 km/h (0 Bft) W-SW 247 0 min -5,2 C -2,7 C 0,0 km/h (0 Bft)
17.01.2016 08:05 -3,5 C 22,1 C -2,1 C -2,7 C -2,7 C 0,8 C 88 % 89 % 0 % 1017,8 hPa 0,0 l/m 0,0 km/h (0 Bft) SW 225 0 min -5,2 C -2,7 C 0,0 km/h (0 Bft)
17.01.2016 08:10 -3,5 C 22,1 C -2,1 C -2,7 C -2,7 C 0,8 C 88 % 89 % 0 % 1018,1 hPa 0,0 l/m 0,0 km/h (0 Bft) W-SW 247 0 min -5,2 C -2,7 C 1,8 km/h (1 Bft)
17.01.2016 08:15 -3,5 C 22,1 C -1,9 C -2,7 C -2,7 C 0,8 C 88 % 89 % 0 % 1018,1 hPa 0,0 l/m 0,3 km/h (0 Bft) W-SW 247 0 min -5,2 C -2,7 C 0,0 km/h (0 Bft)
17.01.2016 08:20 -3,5 C 22,1 C -2,0 C -2,6 C -2,6 C 0,9 C 88 % 89 % 24 % 1018,1 hPa 0,0 l/m 0,8 km/h (0 Bft) W-SW 247 5 min -5,2 C -2,6 C 0,0 km/h (0 Bft)
17.01.2016 08:25 -3,5 C 22,0 C -2,1 C -2,6 C -2,6 C 0,9 C 88 % 89 % 24 % 1018,1 hPa 0,0 l/m 0,6 km/h (0 Bft) W 270 5 min -5,2 C -2,6 C 3,2 km/h (1 Bft)
17.01.2016 08:30 -3,5 C 22,0 C -2,0 C -2,6 C -2,6 C 0,9 C 88 % 89 % 24 % 1018,0 hPa 0,0 l/m 0,5 km/h (0 Bft) W 270 5 min -5,2 C -2,6 C 0,0 km/h (0 Bft)
17.01.2016 08:35 -3,3 C 22,0 C -2,0 C -2,6 C -2,6 C 0,7 C 88 % 89 % 18 % 1018,0 hPa 0,0 l/m 0,5 km/h (0 Bft) W-SW 247 5 min -5,0 C -2,6 C 0,0 km/h (0 Bft)
17.01.2016 08:40 -3,3 C 22,0 C -1,9 C -2,6 C -2,6 C 0,7 C 88 % 89 % 18 % 1018,0 hPa 0,0 l/m 0,2 km/h (0 Bft) W-SW 247 5 min -5,0 C -2,6 C 0,0 km/h (0 Bft)
17.01.2016 08:45 -3,3 C 22,0 C -1,9 C -2,5 C -2,5 C 0,8 C 88 % 89 % 21 % 1018,0 hPa 0,0 l/m 0,0 km/h (0 Bft) S 180 5 min -5,0 C -2,5 C 0,0 km/h (0 Bft)
17.01.2016 08:50 -3,3 C 22,0 C -1,7 C -2,4 C -2,4 C 0,9 C 88 % 90 % 24 % 1018,3 hPa 0,0 l/m 0,0 km/h (0 Bft) SW 225 5 min -5,0 C -2,4 C 0,0 km/h (0 Bft)
17.01.2016 08:55 -3,3 C 22,0 C -1,8 C -2,4 C -2,4 C 0,9 C 88 % 89 % 24 % 1018,3 hPa 0,0 l/m 0,2 km/h (0 Bft) S 180 0 min -5,0 C -2,4 C 0,0 km/h (0 Bft)
17.01.2016 09:00 -3,3 C 22,0 C -1,7 C -2,3 C -2,3 C 1,0 C 88 % 90 % 26 % 1018,3 hPa 0,0 l/m 0,2 km/h (0 Bft) W-SW 247 0 min -5,0 C -2,3 C 0,0 km/h (0 Bft)
17.01.2016 09:05 -3,3 C 22,0 C -1,7 C -2,2 C -2,2 C 1,1 C 89 % 90 % 29 % 1018,3 hPa 0,0 l/m 0,0 km/h (0 Bft) W 270 0 min -4,8 C -2,2 C 0,0 km/h (0 Bft)
17.01.2016 09:10 -3,2 C 22,0 C -1,6 C -2,1 C -2,1 C 1,1 C 89 % 90 % 29 % 1018,8 hPa 0,0 l/m 0,0 km/h (0 Bft) W-SW 247 0 min -4,7 C -2,1 C 0,0 km/h (0 Bft)
17.01.2016 09:15 -3,1 C 22,0 C -1,5 C -2,0 C -2,0 C 1,1 C 89 % 90 % 29 % 1018,8 hPa 0,0 l/m 0,0 km/h (0 Bft) SW 225 0 min -4,6 C -2,0 C 0,0 km/h (0 Bft)
17.01.2016 09:20 -3,1 C 22,0 C -1,5 C -1,9 C -1,9 C 1,2 C 89 % 90 % 32 % 1018,8 hPa 0,0 l/m 0,0 km/h (0 Bft) SW 225 0 min -4,6 C -1,9 C 0,0 km/h (0 Bft)
17.01.2016 09:25 -2,9 C 22,0 C -1,3 C -1,8 C -1,8 C 1,1 C 89 % 90 % 29 % 1018,8 hPa 0,0 l/m 0,0 km/h (0 Bft) SW 225 0 min -4,5 C -1,8 C 0,0 km/h (0 Bft)
17.01.2016 09:30 -2,9 C 22,0 C -1,3 C -1,7 C -1,7 C 1,2 C 89 % 90 % 32 % 1018,8 hPa 0,0 l/m 0,2 km/h (0 Bft) W-SW 247 0 min -4,5 C -1,7 C 2,1 km/h (1 Bft)
17.01.2016 09:35 -2,9 C 21,9 C -1,1 C -1,6 C -1,6 C 1,3 C 89 % 90 % 34 % 1018,8 hPa 0,0 l/m 0,6 km/h (0 Bft) W-SW 247 0 min -4,5 C -1,6 C 1,6 km/h (1 Bft)
17.01.2016 09:41 -2,9 C 21,9 C -1,1 C -1,4 C -1,4 C 1,5 C 89 % 90 % 39 % 1018,8 hPa 0,0 l/m 0,6 km/h (0 Bft) N 0 0 min -4,5 C -1,4 C 0,0 km/h (0 Bft)
17.01.2016 09:50 -2,7 C 21,9 C -0,7 C -1,1 C -1,1 C 1,6 C 89 % 90 % 42 % 1019,1 hPa 0,0 l/m 0,2 km/h (0 Bft) NW 315 0 min -4,3 C -1,1 C 0,0 km/h (0 Bft)
17.01.2016 09:55 -2,7 C 21,9 C -0,7 C -1,0 C -1,0 C 1,7 C 89 % 90 % 45 % 1019,1 hPa 0,0 l/m 0,2 km/h (0 Bft) SW 225 0 min -4,3 C -1,0 C 0,0 km/h (0 Bft)
17.01.2016 10:00 -2,5 C 21,9 C -0,5 C -0,7 C -0,7 C 1,8 C 89 % 90 % 47 % 1019,1 hPa 0,0 l/m 0,6 km/h (0 Bft) W 270 0 min -4,1 C -0,7 C 2,4 km/h (1 Bft)
17.01.2016 10:05 -2,5 C 21,9 C -0,5 C -0,7 C -0,7 C 1,8 C 89 % 90 % 47 % 1019,1 hPa 0,0 l/m 1,0 km/h (0 Bft) N 360 0 min -4,1 C -0,7 C 1,6 km/h (1 Bft)
17.01.2016 10:10 -2,5 C 21,9 C -0,5 C -0,7 C -0,7 C 1,8 C 89 % 90 % 47 % 1019,0 hPa 0,0 l/m 1,4 km/h (1 Bft) W-SW 247 0 min -4,1 C -0,7 C 0,0 km/h (0 Bft)
17.01.2016 10:15 -2,5 C 21,9 C -0,5 C -0,7 C -0,7 C 1,8 C 88 % 90 % 47 % 1019,0 hPa 0,0 l/m 1,1 km/h (1 Bft) SW 225 0 min -4,2 C -0,7 C 0,0 km/h (0 Bft)
17.01.2016 10:20 -2,5 C 21,9 C -0,7 C -0,7 C -0,7 C 1,8 C 88 % 90 % 47 % 1019,0 hPa 0,0 l/m 1,3 km/h (1 Bft) S-SW 202 0 min -4,2 C -0,7 C 0,0 km/h (0 Bft)
17.01.2016 10:25 -2,5 C 21,9 C -0,7 C -0,7 C -0,7 C 1,8 C 88 % 90 % 47 % 1019,0 hPa 0,0 l/m 1,3 km/h (1 Bft) S-SO 157 0 min -4,2 C -0,7 C 0,0 km/h (0 Bft)
17.01.2016 10:30 -2,5 C 21,9 C -0,5 C -0,7 C -0,7 C 1,8 C 87 % 90 % 47 % 1019,7 hPa 0,0 l/m 0,5 km/h (0 Bft) S 180 0 min -4,4 C -0,7 C 2,7 km/h (1 Bft)
17.01.2016 10:35 -2,5 C 21,9 C -0,5 C -0,6 C -0,6 C 1,9 C 87 % 90 % 50 % 1019,7 hPa 0,0 l/m 0,6 km/h (0 Bft) W 270 0 min -4,4 C -0,6 C 1,8 km/h (1 Bft)
17.01.2016 10:40 -2,5 C 21,9 C -0,4 C -0,4 C -0,4 C 2,1 C 87 % 91 % 55 % 1019,7 hPa 0,0 l/m 1,1 km/h (1 Bft) SW 225 0 min -4,4 C -0,4 C 1,6 km/h (1 Bft)
17.01.2016 10:45 -2,3 C 21,8 C -0,3 C -0,3 C -0,3 C 2,0 C 87 % 91 % 53 % 1019,7 hPa 0,0 l/m 1,3 km/h (1 Bft) W 270 0 min -4,2 C -0,3 C 3,2 km/h (1 Bft)
17.01.2016 10:50 -2,5 C 21,9 C -0,3 C -0,3 C -0,3 C 2,2 C 86 % 91 % 58 % 1019,3 hPa 0,0 l/m 2,3 km/h (1 Bft) NW 315 0 min -4,5 C -0,3 C 2,7 km/h (1 Bft)
17.01.2016 10:55 -2,5 C 21,9 C -0,3 C -0,4 C -0,4 C 2,1 C 86 % 90 % 55 % 1019,3 hPa 0,0 l/m 1,9 km/h (1 Bft) SW 225 0 min -4,5 C -0,4 C 0,0 km/h (0 Bft)
17.01.2016 11:00 -2,5 C 21,9 C -0,1 C -0,1 C -0,1 C 2,4 C 86 % 90 % 63 % 1019,3 hPa 0,0 l/m 1,4 km/h (1 Bft) SW 225 0 min -4,5 C -0,1 C 0,0 km/h (0 Bft)
17.01.2016 11:05 -2,4 C 21,8 C -0,1 C 0,1 C 0,1 C 2,5 C 86 % 90 % 66 % 1019,3 hPa 0,0 l/m 1,6 km/h (1 Bft) S 180 0 min -4,4 C 0,1 C 4,7 km/h (1 Bft)
17.01.2016 11:10 -2,4 C 21,8 C -0,1 C 0,2 C 0,2 C 2,6 C 86 % 90 % 68 % 1019,8 hPa 0,0 l/m 1,4 km/h (1 Bft) SW 225 0 min -4,4 C 0,2 C 0,0 km/h (0 Bft)
17.01.2016 11:15 -2,3 C 21,8 C 0,0 C 0,3 C 0,3 C 2,6 C 86 % 90 % 68 % 1019,8 hPa 0,0 l/m 1,8 km/h (1 Bft) W-SW 247 0 min -4,3 C 0,3 C 0,0 km/h (0 Bft)
17.01.2016 11:20 -2,1 C 21,8 C 0,1 C 0,4 C 0,4 C 2,5 C 85 % 90 % 66 % 1019,8 hPa 0,0 l/m 1,4 km/h (1 Bft) O-NO 67 0 min -4,3 C 0,4 C 3,1 km/h (1 Bft)
17.01.2016 11:25 -2,1 C 21,8 C 0,0 C 0,4 C 0,4 C 2,5 C 85 % 89 % 66 % 1019,8 hPa 0,0 l/m 1,8 km/h (1 Bft) O-NO 67 0 min -4,3 C 0,4 C 2,7 km/h (1 Bft)
17.01.2016 11:30 -2,1 C 21,8 C 0,1 C 0,3 C 0,3 C 2,4 C 85 % 89 % 63 % 1020,4 hPa 0,0 l/m 1,9 km/h (1 Bft) W 270 0 min -4,3 C 0,3 C 0,0 km/h (0 Bft)
17.01.2016 11:35 -2,2 C 21,8 C 0,1 C 0,4 C 0,4 C 2,6 C 85 % 89 % 68 % 1020,4 hPa 0,0 l/m 1,4 km/h (1 Bft) NW 315 0 min -4,4 C 0,4 C 1,8 km/h (1 Bft)
17.01.2016 11:40 -2,1 C 21,8 C 0,3 C 0,5 C 0,5 C 2,6 C 85 % 89 % 68 % 1020,4 hPa 0,0 l/m 1,1 km/h (1 Bft) O-NO 67 0 min -4,3 C 0,5 C 0,0 km/h (0 Bft)
17.01.2016 11:45 -2,1 C 21,8 C 0,1 C 0,5 C 0,5 C 2,6 C 85 % 89 % 68 % 1020,4 hPa 0,0 l/m 1,1 km/h (1 Bft) NW 315 0 min -4,3 C 0,5 C 3,7 km/h (1 Bft)
17.01.2016 11:50 -2,1 C 21,8 C 0,0 C 0,4 C 0,4 C 2,5 C 85 % 89 % 66 % 1020,1 hPa 0,0 l/m 0,8 km/h (0 Bft) NW 315 0 min -4,3 C 0,4 C 1,8 km/h (1 Bft)
17.01.2016 11:55 -2,0 C 21,8 C 0,0 C 0,4 C 0,4 C 2,4 C 84 % 89 % 63 % 1020,1 hPa 0,0 l/m 1,3 km/h (1 Bft) NO 45 0 min -4,3 C 0,4 C 2,1 km/h (1 Bft)
17.01.2016 12:00 -2,1 C 21,8 C 0,0 C 0,3 C 0,3 C 2,4 C 84 % 89 % 63 % 1020,1 hPa 0,0 l/m 1,4 km/h (1 Bft) W-SW 247 0 min -4,4 C 0,3 C 2,1 km/h (1 Bft)
17.01.2016 12:05 -2,1 C 21,8 C 0,1 C 0,3 C 0,3 C 2,4 C 84 % 89 % 63 % 1020,1 hPa 0,0 l/m 1,6 km/h (1 Bft) W 270 0 min -4,4 C 0,3 C 4,2 km/h (1 Bft)
17.01.2016 12:10 -2,1 C 21,8 C 0,3 C 0,4 C 0,4 C 2,5 C 84 % 89 % 66 % 1020,1 hPa 0,0 l/m 1,6 km/h (1 Bft) SW 225 0 min -4,4 C 0,4 C 1,8 km/h (1 Bft)
17.01.2016 12:15 -2,0 C 21,8 C 0,3 C 0,6 C 0,6 C 2,6 C 85 % 89 % 68 % 1020,1 hPa 0,0 l/m 1,1 km/h (1 Bft) W 270 0 min -4,2 C 0,6 C 0,0 km/h (0 Bft)
17.01.2016 12:20 -1,9 C 21,8 C 0,3 C 0,7 C 0,7 C 2,6 C 85 % 89 % 68 % 1020,1 hPa 0,0 l/m 1,0 km/h (0 Bft) NW 315 0 min -4,1 C 0,7 C 1,6 km/h (1 Bft)
17.01.2016 12:25 -1,9 C 21,8 C 0,3 C 0,5 C 0,5 C 2,4 C 84 % 89 % 63 % 1020,1 hPa 0,0 l/m 1,4 km/h (1 Bft) S-SW 202 0 min -4,2 C 0,5 C 3,7 km/h (1 Bft)
17.01.2016 12:30 -2,1 C 21,8 C -0,1 C -0,2 C -0,2 C 1,9 C 84 % 89 % 50 % 1020,5 hPa 0,0 l/m 2,9 km/h (1 Bft) W-SW 247 0 min -4,4 C -0,2 C 3,4 km/h (1 Bft)
17.01.2016 12:35 -2,1 C 21,8 C -0,1 C -0,1 C -0,1 C 2,0 C 84 % 89 % 53 % 1020,5 hPa 0,0 l/m 2,4 km/h (1 Bft) W 270 0 min -4,4 C -0,1 C 0,0 km/h (0 Bft)
17.01.2016 12:41 -2,1 C 21,8 C -0,1 C -0,1 C -0,1 C 2,0 C 85 % 89 % 53 % 1020,5 hPa 0,0 l/m 0,5 km/h (0 Bft) N 0 0 min -4,3 C -0,1 C 0,0 km/h (0 Bft)
17.01.2016 12:50 -2,1 C 21,8 C -0,2 C -0,1 C -0,1 C 2,0 C 84 % 89 % 53 % 1020,8 hPa 0,0 l/m 1,6 km/h (1 Bft) W-SW 247 0 min -4,4 C -0,1 C 2,1 km/h (1 Bft)
17.01.2016 12:55 -2,1 C 21,8 C -0,3 C -0,2 C -0,2 C 1,9 C 84 % 89 % 50 % 1020,8 hPa 0,0 l/m 1,9 km/h (1 Bft) W-SW 247 0 min -4,4 C -0,2 C 5,8 km/h (2 Bft)
17.01.2016 13:00 -2,1 C 21,9 C -0,4 C -0,4 C -0,4 C 1,7 C 84 % 89 % 45 % 1020,8 hPa 0,0 l/m 1,6 km/h (1 Bft) S 180 0 min -4,4 C -0,4 C 0,0 km/h (0 Bft)
17.01.2016 13:05 -2,1 C 21,9 C -0,5 C -0,6 C -0,6 C 1,5 C 84 % 89 % 39 % 1020,8 hPa 0,0 l/m 1,6 km/h (1 Bft) W-SW 247 0 min -4,4 C -0,6 C 2,4 km/h (1 Bft)
17.01.2016 13:10 -2,4 C 21,9 C -0,7 C -0,8 C -0,8 C 1,6 C 85 % 89 % 42 % 1021,0 hPa 0,0 l/m 1,0 km/h (0 Bft) W-SW 247 0 min -4,6 C -0,8 C 0,0 km/h (0 Bft)
17.01.2016 13:15 -2,4 C 21,9 C -0,5 C -0,9 C -0,9 C 1,5 C 85 % 89 % 39 % 1021,0 hPa 0,0 l/m 1,3 km/h (1 Bft) W-SW 247 0 min -4,6 C -0,9 C 3,4 km/h (1 Bft)
17.01.2016 13:20 -2,5 C 21,9 C -0,5 C -1,0 C -1,0 C 1,5 C 85 % 90 % 39 % 1021,0 hPa 0,0 l/m 1,4 km/h (1 Bft) NW 315 0 min -4,7 C -1,0 C 2,1 km/h (1 Bft)
17.01.2016 13:25 -2,5 C 21,9 C -0,5 C -0,9 C -0,9 C 1,6 C 85 % 90 % 42 % 1021,0 hPa 0,0 l/m 1,8 km/h (1 Bft) W-SW 247 0 min -4,7 C -0,9 C 2,6 km/h (1 Bft)
17.01.2016 13:30 -2,5 C 21,9 C -0,5 C -0,8 C -0,8 C 1,7 C 85 % 90 % 45 % 1021,1 hPa 0,0 l/m 2,1 km/h (1 Bft) W 270 0 min -4,7 C -0,8 C 2,4 km/h (1 Bft)
17.01.2016 13:35 -2,5 C 21,9 C -0,4 C -0,7 C -0,7 C 1,8 C 85 % 90 % 47 % 1021,1 hPa 0,0 l/m 1,8 km/h (1 Bft) O-NO 67 0 min -4,7 C -0,7 C 0,0 km/h (0 Bft)
17.01.2016 13:40 -2,4 C 21,9 C -0,3 C -0,4 C -0,4 C 2,0 C 86 % 90 % 53 % 1021,1 hPa 0,0 l/m 1,0 km/h (0 Bft) W 270 0 min -4,4 C -0,4 C 0,0 km/h (0 Bft)
17.01.2016 13:45 -2,3 C 21,9 C -0,1 C -0,2 C -0,2 C 2,1 C 86 % 90 % 55 % 1021,1 hPa 0,0 l/m 0,8 km/h (0 Bft) W 270 0 min -4,3 C -0,2 C 0,0 km/h (0 Bft)
17.01.2016 13:50 -2,3 C 21,9 C -0,1 C 0,0 C 0,0 C 2,3 C 86 % 90 % 61 % 1021,2 hPa 0,0 l/m 1,1 km/h (1 Bft) W 270 0 min -4,3 C 0,0 C 3,4 km/h (1 Bft)
17.01.2016 13:55 -2,1 C 21,9 C 0,1 C 0,1 C 0,1 C 2,2 C 86 % 90 % 58 % 1021,2 hPa 0,0 l/m 1,4 km/h (1 Bft) S-SW 202 0 min -4,1 C 0,1 C 2,9 km/h (1 Bft)
17.01.2016 14:00 -2,1 C 21,9 C 0,0 C 0,2 C 0,2 C 2,3 C 85 % 90 % 61 % 1021,2 hPa 0,0 l/m 1,6 km/h (1 Bft) S-SW 202 0 min -4,3 C 0,2 C 2,6 km/h (1 Bft)
17.01.2016 14:05 -2,1 C 21,9 C 0,0 C 0,2 C 0,2 C 2,3 C 85 % 90 % 61 % 1021,2 hPa 0,0 l/m 1,4 km/h (1 Bft) W-SW 247 0 min -4,3 C 0,2 C 2,3 km/h (1 Bft)
17.01.2016 14:10 -2,2 C 21,9 C 0,0 C 0,2 C 0,2 C 2,4 C 85 % 90 % 63 % 1021,4 hPa 0,0 l/m 1,8 km/h (1 Bft) W-SW 247 0 min -4,4 C 0,2 C 3,9 km/h (1 Bft)
17.01.2016 14:15 -2,1 C 21,9 C 0,0 C 0,2 C 0,2 C 2,3 C 85 % 90 % 61 % 1021,4 hPa 0,0 l/m 2,3 km/h (1 Bft) SW 225 0 min -4,3 C 0,2 C 3,7 km/h (1 Bft)
17.01.2016 14:20 -2,1 C 21,9 C 0,0 C 0,1 C 0,1 C 2,2 C 85 % 90 % 58 % 1021,4 hPa 0,0 l/m 2,3 km/h (1 Bft) S 180 0 min -4,3 C 0,1 C 3,9 km/h (1 Bft)
17.01.2016 14:25 -2,1 C 21,9 C 0,0 C 0,1 C 0,1 C 2,2 C 85 % 90 % 58 % 1021,4 hPa 0,0 l/m 1,6 km/h (1 Bft) S 180 0 min -4,3 C 0,1 C 2,9 km/h (1 Bft)
17.01.2016 14:30 -2,1 C 21,9 C 0,1 C 0,2 C 0,2 C 2,3 C 85 % 90 % 61 % 1021,0 hPa 0,0 l/m 1,6 km/h (1 Bft) N-NW 337 0 min -4,3 C 0,2 C 2,3 km/h (1 Bft)
17.01.2016 14:35 -2,1 C 21,9 C 0,1 C 0,2 C 0,2 C 2,3 C 85 % 90 % 61 % 1021,0 hPa 0,0 l/m 1,6 km/h (1 Bft) S-SO 157 0 min -4,3 C 0,2 C 2,9 km/h (1 Bft)
17.01.2016 14:40 -2,1 C 21,9 C -0,1 C 0,2 C 0,2 C 2,3 C 85 % 89 % 61 % 1021,0 hPa 0,0 l/m 1,9 km/h (1 Bft) S 180 0 min -4,3 C 0,2 C 1,8 km/h (1 Bft)
17.01.2016 14:45 -2,1 C 21,9 C -0,1 C 0,1 C 0,1 C 2,2 C 85 % 89 % 58 % 1021,0 hPa 0,0 l/m 2,4 km/h (1 Bft) W-SW 247 0 min -4,3 C 0,1 C 0,0 km/h (0 Bft)
17.01.2016 14:50 -2,1 C 21,9 C -0,1 C -0,1 C -0,1 C 2,0 C 85 % 89 % 53 % 1021,9 hPa 0,0 l/m 1,1 km/h (1 Bft) NW 315 0 min -4,3 C -0,1 C 0,0 km/h (0 Bft)
17.01.2016 14:55 -2,0 C 21,9 C -0,3 C -0,2 C -0,2 C 1,8 C 85 % 90 % 47 % 1021,9 hPa 0,0 l/m 0,5 km/h (0 Bft) S-SW 202 0 min -4,2 C -0,2 C 0,0 km/h (0 Bft)
17.01.2016 15:00 -2,1 C 21,9 C -0,5 C -0,5 C -0,5 C 1,6 C 85 % 90 % 42 % 1021,9 hPa 0,0 l/m 0,8 km/h (0 Bft) W-SW 247 0 min -4,3 C -0,5 C 1,8 km/h (1 Bft)
17.01.2016 15:05 -2,1 C 21,9 C -0,5 C -0,7 C -0,7 C 1,4 C 85 % 90 % 37 % 1021,9 hPa 0,0 l/m 1,1 km/h (1 Bft) SW 225 0 min -4,3 C -0,7 C 2,7 km/h (1 Bft)
17.01.2016 15:10 -2,1 C 21,9 C -0,5 C -0,8 C -0,8 C 1,3 C 85 % 90 % 34 % 1021,6 hPa 0,0 l/m 1,1 km/h (1 Bft) W 270 0 min -4,3 C -0,8 C 0,0 km/h (0 Bft)
17.01.2016 15:15 -2,1 C 21,9 C -0,6 C -0,9 C -0,9 C 1,2 C 85 % 90 % 32 % 1021,6 hPa 0,0 l/m 1,0 km/h (0 Bft) W 270 0 min -4,3 C -0,9 C 0,0 km/h (0 Bft)
17.01.2016 15:20 -2,3 C 21,9 C -0,7 C -1,0 C -1,0 C 1,3 C 85 % 90 % 34 % 1021,6 hPa 0,0 l/m 0,8 km/h (0 Bft) SW 225 0 min -4,5 C -1,0 C 1,8 km/h (1 Bft)
17.01.2016 15:25 -2,3 C 21,9 C -0,7 C -1,1 C -1,1 C 1,2 C 85 % 90 % 32 % 1021,6 hPa 0,0 l/m 1,0 km/h (0 Bft) SW 225 0 min -4,5 C -1,1 C 2,7 km/h (1 Bft)
17.01.2016 15:30 -2,3 C 21,9 C -0,8 C -1,2 C -1,2 C 1,1 C 85 % 90 % 29 % 1022,2 hPa 0,0 l/m 1,1 km/h (1 Bft) W 270 0 min -4,5 C -1,2 C 2,1 km/h (1 Bft)
17.01.2016 15:35 -2,4 C 21,9 C -0,7 C -1,3 C -1,3 C 1,1 C 85 % 90 % 29 % 1022,2 hPa 0,0 l/m 1,0 km/h (0 Bft) S-SW 202 5 min -4,6 C -1,3 C 3,7 km/h (1 Bft)
17.01.2016 15:41 -2,4 C 21,9 C -0,9 C -1,3 C -1,3 C 1,1 C 85 % 90 % 29 % 1022,2 hPa 0,0 l/m 0,8 km/h (0 Bft) N 0 6 min -4,6 C -1,3 C 2,6 km/h (1 Bft)
17.01.2016 15:50 -2,3 C 21,9 C -0,9 C -1,4 C -1,4 C 0,9 C 86 % 90 % 24 % 1022,0 hPa 0,0 l/m 0,8 km/h (0 Bft) N 360 9 min -4,3 C -1,4 C 0,0 km/h (0 Bft)
17.01.2016 15:55 -2,4 C 21,9 C -0,9 C -1,4 C -1,4 C 1,0 C 86 % 90 % 26 % 1022,0 hPa 0,0 l/m 0,5 km/h (0 Bft) SW 225 5 min -4,4 C -1,4 C 0,0 km/h (0 Bft)
17.01.2016 16:00 -2,3 C 22,0 C -0,9 C -1,4 C -1,4 C 0,9 C 86 % 90 % 24 % 1022,0 hPa 0,0 l/m 0,6 km/h (0 Bft) SW 225 5 min -4,3 C -1,4 C 2,1 km/h (1 Bft)
17.01.2016 16:05 -2,5 C 22,0 C -1,0 C -1,4 C -1,4 C 1,1 C 86 % 91 % 29 % 1022,0 hPa 0,0 l/m 0,5 km/h (0 Bft) NW 315 5 min -4,5 C -1,4 C 2,4 km/h (1 Bft)
17.01.2016 16:10 -2,5 C 22,0 C -0,9 C -1,4 C -1,4 C 1,1 C 86 % 91 % 29 % 1022,7 hPa 0,0 l/m 0,8 km/h (0 Bft) SW 225 5 min -4,5 C -1,4 C 0,0 km/h (0 Bft)
17.01.2016 16:15 -2,5 C 22,0 C -1,1 C -1,5 C -1,5 C 1,0 C 86 % 91 % 26 % 1022,7 hPa 0,0 l/m 0,6 km/h (0 Bft) W-SW 247 5 min -4,5 C -1,5 C 0,0 km/h (0 Bft)
17.01.2016 16:20 -2,5 C 22,0 C -1,1 C -1,5 C -1,5 C 1,0 C 86 % 91 % 26 % 1022,7 hPa 0,0 l/m 0,0 km/h (0 Bft) S-SW 202 5 min -4,5 C -1,5 C 0,0 km/h (0 Bft)
17.01.2016 16:25 -2,5 C 22,0 C -1,1 C -1,6 C -1,6 C 0,9 C 86 % 91 % 0 % 1022,7 hPa 0,0 l/m 0,6 km/h (0 Bft) NW 315 0 min -4,5 C -1,6 C 6,9 km/h (2 Bft)
17.01.2016 16:30 -2,5 C 22,0 C -1,1 C -1,7 C -1,7 C 0,8 C 86 % 91 % 0 % 1022,9 hPa 0,0 l/m 1,1 km/h (1 Bft) O-NO 67 0 min -4,5 C -1,7 C 1,9 km/h (1 Bft)
17.01.2016 16:35 -2,5 C 22,0 C -1,3 C -1,7 C -1,7 C 0,8 C 86 % 91 % 0 % 1022,9 hPa 0,0 l/m 1,9 km/h (1 Bft) N-NW 337 0 min -4,5 C -1,7 C 2,7 km/h (1 Bft)
17.01.2016 16:40 -2,7 C 22,0 C -1,3 C -1,8 C -1,8 C 0,9 C 86 % 91 % 0 % 1022,9 hPa 0,0 l/m 1,6 km/h (1 Bft) W 270 0 min -4,7 C -1,8 C 0,0 km/h (0 Bft)
17.01.2016 16:45 -2,7 C 22,0 C -1,3 C -1,8 C -1,8 C 0,9 C 86 % 91 % 0 % 1022,9 hPa 0,0 l/m 0,8 km/h (0 Bft) N 360 0 min -4,7 C -1,8 C 0,0 km/h (0 Bft)
17.01.2016 16:50 -2,7 C 22,0 C -1,3 C -1,9 C -1,9 C 0,8 C 86 % 91 % 0 % 1022,9 hPa 0,0 l/m 1,0 km/h (0 Bft) N-NW 337 0 min -4,7 C -1,9 C 6,8 km/h (2 Bft)
17.01.2016 16:55 -2,8 C 22,0 C -1,5 C -1,9 C -1,9 C 0,9 C 86 % 91 % 0 % 1022,9 hPa 0,0 l/m 1,8 km/h (1 Bft) N-NW 337 0 min -4,8 C -1,9 C 0,0 km/h (0 Bft)
17.01.2016 17:00 -2,9 C 22,0 C -1,5 C -2,0 C -2,0 C 0,9 C 87 % 91 % 0 % 1022,9 hPa 0,0 l/m 1,6 km/h (1 Bft) O-NO 67 0 min -4,8 C -2,0 C 4,3 km/h (1 Bft)
17.01.2016 17:05 -2,9 C 22,0 C -1,5 C -2,0 C -2,0 C 0,9 C 87 % 91 % 0 % 1022,9 hPa 0,0 l/m 1,3 km/h (1 Bft) NO 45 0 min -4,8 C -2,0 C 2,3 km/h (1 Bft)
17.01.2016 17:10 -2,9 C 22,0 C -1,6 C -2,0 C -2,0 C 0,9 C 87 % 91 % 0 % 1022,9 hPa 0,0 l/m 1,4 km/h (1 Bft) N-NW 337 0 min -4,8 C -2,0 C 4,8 km/h (1 Bft)
17.01.2016 17:15 -2,9 C 22,0 C -1,6 C -2,1 C -2,1 C 0,8 C 87 % 91 % 0 % 1022,9 hPa 0,0 l/m 0,6 km/h (0 Bft) W-SW 247 0 min -4,8 C -2,1 C 0,0 km/h (0 Bft)
17.01.2016 17:20 -2,9 C 22,0 C -1,7 C -2,1 C -2,1 C 0,8 C 87 % 91 % 0 % 1022,9 hPa 0,0 l/m 0,3 km/h (0 Bft) N-NO 22 0 min -4,8 C -2,1 C 0,0 km/h (0 Bft)
17.01.2016 17:25 -2,9 C 22,0 C -1,7 C -2,2 C -2,2 C 0,7 C 87 % 91 % 0 % 1022,9 hPa 0,0 l/m 0,6 km/h (0 Bft) N-NO 22 0 min -4,8 C -2,2 C 1,8 km/h (1 Bft)
17.01.2016 17:30 -3,1 C 22,0 C -1,7 C -2,2 C -2,2 C 0,9 C 86 % 91 % 0 % 1023,3 hPa 0,0 l/m 1,3 km/h (1 Bft) N 360 0 min -5,1 C -2,2 C 2,4 km/h (1 Bft)
17.01.2016 17:35 -3,1 C 22,0 C -1,7 C -2,3 C -2,3 C 0,8 C 86 % 91 % 0 % 1023,3 hPa 0,0 l/m 1,4 km/h (1 Bft) NW 315 0 min -5,1 C -2,3 C 1,6 km/h (1 Bft)
17.01.2016 17:40 -3,1 C 22,0 C -1,7 C -2,3 C -2,3 C 0,8 C 87 % 91 % 0 % 1023,3 hPa 0,0 l/m 0,8 km/h (0 Bft) N-NW 337 0 min -4,9 C -2,3 C 0,0 km/h (0 Bft)
17.01.2016 17:45 -3,2 C 22,0 C -1,9 C -2,3 C -2,3 C 0,9 C 87 % 91 % 0 % 1023,3 hPa 0,0 l/m 0,6 km/h (0 Bft) N-NW 337 0 min -5,0 C -2,3 C 0,0 km/h (0 Bft)
17.01.2016 17:50 -3,2 C 22,0 C -1,7 C -2,3 C -2,3 C 0,9 C 87 % 91 % 0 % 1023,3 hPa 0,0 l/m 0,3 km/h (0 Bft) SW 225 0 min -5,0 C -2,3 C 0,0 km/h (0 Bft)
17.01.2016 17:55 -3,2 C 22,0 C -1,7 C -2,4 C -2,4 C 0,8 C 87 % 91 % 0 % 1023,3 hPa 0,0 l/m 0,0 km/h (0 Bft) W 270 0 min -5,0 C -2,4 C 0,0 km/h (0 Bft)
17.01.2016 18:00 -3,2 C 22,0 C -1,7 C -2,4 C -2,4 C 0,8 C 87 % 91 % 0 % 1023,3 hPa 0,0 l/m 0,2 km/h (0 Bft) N-NO 22 0 min -5,0 C -2,4 C 2,3 km/h (1 Bft)
17.01.2016 18:05 -3,2 C 22,0 C -1,7 C -2,4 C -2,4 C 0,8 C 87 % 91 % 0 % 1023,3 hPa 0,0 l/m 0,3 km/h (0 Bft) SW 225 0 min -5,0 C -2,4 C 1,6 km/h (1 Bft)
17.01.2016 18:10 -3,2 C 22,0 C -1,9 C -2,4 C -2,4 C 0,8 C 87 % 91 % 0 % 1023,3 hPa 0,0 l/m 0,6 km/h (0 Bft) N-NW 337 0 min -5,0 C -2,4 C 0,0 km/h (0 Bft)
17.01.2016 18:15 -3,1 C 22,0 C -1,9 C -2,4 C -2,4 C 0,7 C 87 % 91 % 0 % 1023,3 hPa 0,0 l/m 0,6 km/h (0 Bft) O-NO 67 0 min -4,9 C -2,4 C 0,0 km/h (0 Bft)
17.01.2016 18:20 -3,3 C 22,0 C -1,9 C -2,3 C -2,3 C 1,0 C 87 % 91 % 0 % 1023,3 hPa 0,0 l/m 0,2 km/h (0 Bft) O-NO 67 0 min -5,1 C -2,3 C 0,0 km/h (0 Bft)
17.01.2016 18:25 -3,3 C 22,0 C -1,9 C -2,3 C -2,3 C 1,0 C 87 % 91 % 0 % 1023,3 hPa 0,0 l/m 0,0 km/h (0 Bft) W 270 0 min -5,1 C -2,3 C 0,0 km/h (0 Bft)
17.01.2016 18:30 -3,3 C 22,0 C -1,9 C -2,4 C -2,4 C 0,9 C 87 % 91 % 0 % 1023,3 hPa 0,0 l/m 0,6 km/h (0 Bft) N-NO 22 0 min -5,1 C -2,4 C 2,3 km/h (1 Bft)
17.01.2016 18:35 -3,3 C 22,0 C -1,9 C -2,4 C -2,4 C 0,9 C 87 % 91 % 0 % 1023,3 hPa 0,0 l/m 1,3 km/h (1 Bft) NO 45 0 min -5,1 C -2,4 C 0,0 km/h (0 Bft)
17.01.2016 18:41 -3,3 C 21,9 C -2,0 C -2,4 C -2,4 C 0,9 C 87 % 91 % 0 % 1023,3 hPa 0,0 l/m 1,6 km/h (1 Bft) N 0 0 min -5,1 C -2,4 C 4,3 km/h (1 Bft)
17.01.2016 18:50 -3,3 C 21,9 C -2,0 C -2,5 C -2,5 C 0,8 C 87 % 91 % 0 % 1023,3 hPa 0,0 l/m 1,1 km/h (1 Bft) N-NW 337 0 min -5,1 C -2,5 C 1,6 km/h (1 Bft)
17.01.2016 18:55 -3,4 C 21,9 C -1,9 C -2,5 C -2,5 C 0,9 C 87 % 91 % 0 % 1023,3 hPa 0,0 l/m 1,4 km/h (1 Bft) O-NO 67 0 min -5,2 C -2,5 C 1,9 km/h (1 Bft)
17.01.2016 19:00 -3,3 C 21,9 C -2,1 C -2,5 C -2,5 C 0,8 C 87 % 91 % 0 % 1023,3 hPa 0,0 l/m 1,4 km/h (1 Bft) N-NW 337 0 min -5,1 C -2,5 C 1,9 km/h (1 Bft)
17.01.2016 19:05 -3,3 C 21,9 C -2,1 C -2,6 C -2,6 C 0,7 C 87 % 91 % 0 % 1023,3 hPa 0,0 l/m 0,6 km/h (0 Bft) N-NW 337 0 min -5,1 C -2,6 C 0,0 km/h (0 Bft)
17.01.2016 19:10 -3,5 C 21,9 C -2,5 C -3,0 C -3,0 C 0,5 C 87 % 91 % 0 % 1023,3 hPa 0,0 l/m 0,0 km/h (0 Bft) NO 45 0 min -5,3 C -3,0 C 0,0 km/h (0 Bft)
17.01.2016 19:15 -3,7 C 21,9 C -2,7 C -3,3 C -3,3 C 0,4 C 87 % 91 % 0 % 1023,3 hPa 0,0 l/m 0,0 km/h (0 Bft) NO 45 0 min -5,5 C -3,3 C 0,0 km/h (0 Bft)
17.01.2016 19:20 -3,8 C 21,9 C -2,7 C -3,4 C -3,4 C 0,4 C 87 % 91 % 0 % 1023,3 hPa 0,0 l/m 0,0 km/h (0 Bft) W-SW 247 0 min -5,6 C -3,4 C 0,0 km/h (0 Bft)
17.01.2016 19:25 -3,7 C 21,9 C -2,5 C -3,4 C -3,4 C 0,3 C 87 % 91 % 0 % 1023,3 hPa 0,0 l/m 0,0 km/h (0 Bft) NW 315 0 min -5,5 C -3,4 C 0,0 km/h (0 Bft)
17.01.2016 19:30 -3,8 C 21,9 C -2,4 C -3,3 C -3,3 C 0,5 C 87 % 91 % 0 % 1025,0 hPa 0,0 l/m 0,2 km/h (0 Bft) W 270 0 min -5,6 C -3,3 C 3,9 km/h (1 Bft)
17.01.2016 19:35 -3,7 C 21,9 C -2,4 C -3,1 C -3,1 C 0,6 C 87 % 91 % 0 % 1025,0 hPa 0,0 l/m 1,0 km/h (0 Bft) NW 315 0 min -5,5 C -3,1 C 2,6 km/h (1 Bft)
17.01.2016 19:40 -3,7 C 21,9 C -2,5 C -3,1 C -3,1 C 0,6 C 87 % 91 % 0 % 1025,0 hPa 0,0 l/m 1,0 km/h (0 Bft) S-SW 202 0 min -5,5 C -3,1 C 0,0 km/h (0 Bft)
17.01.2016 19:45 -3,7 C 21,9 C -2,5 C -3,1 C -3,1 C 0,6 C 87 % 91 % 0 % 1025,0 hPa 0,0 l/m 0,3 km/h (0 Bft) NW 315 0 min -5,5 C -3,1 C 0,0 km/h (0 Bft)
17.01.2016 19:50 -3,7 C 21,9 C -2,5 C -3,1 C -3,1 C 0,6 C 87 % 91 % 0 % 1024,7 hPa 0,0 l/m 0,2 km/h (0 Bft) S 180 0 min -5,5 C -3,1 C 0,0 km/h (0 Bft)
17.01.2016 19:55 -3,8 C 21,9 C -2,5 C -3,1 C -3,1 C 0,7 C 87 % 91 % 0 % 1024,7 hPa 0,0 l/m 0,2 km/h (0 Bft) O-NO 67 0 min -5,6 C -3,1 C 0,0 km/h (0 Bft)
17.01.2016 20:00 -3,7 C 21,9 C -2,5 C -3,1 C -3,1 C 0,6 C 87 % 91 % 0 % 1024,7 hPa 0,0 l/m 0,0 km/h (0 Bft) S-SW 202 0 min -5,5 C -3,1 C 0,0 km/h (0 Bft)
17.01.2016 20:05 -3,7 C 21,9 C -2,5 C -3,1 C -3,1 C 0,6 C 87 % 91 % 0 % 1024,7 hPa 0,0 l/m 0,2 km/h (0 Bft) W 270 0 min -5,5 C -3,1 C 0,0 km/h (0 Bft)
17.01.2016 20:10 -3,7 C 21,9 C -2,5 C -3,2 C -3,2 C 0,5 C 88 % 91 % 0 % 1024,7 hPa 0,0 l/m 0,2 km/h (0 Bft) S 180 0 min -5,4 C -3,2 C 0,0 km/h (0 Bft)
17.01.2016 20:15 -3,7 C 21,9 C -2,5 C -3,2 C -3,2 C 0,5 C 88 % 91 % 0 % 1024,7 hPa 0,0 l/m 0,2 km/h (0 Bft) S-SW 202 0 min -5,4 C -3,2 C 0,0 km/h (0 Bft)
17.01.2016 20:20 -3,7 C 21,9 C -2,5 C -3,2 C -3,2 C 0,5 C 88 % 91 % 0 % 1024,7 hPa 0,0 l/m 0,5 km/h (0 Bft) SW 225 0 min -5,4 C -3,2 C 0,0 km/h (0 Bft)
17.01.2016 20:25 -3,7 C 21,9 C -2,5 C -3,2 C -3,2 C 0,5 C 88 % 91 % 0 % 1024,7 hPa 0,0 l/m 0,3 km/h (0 Bft) NW 315 0 min -5,4 C -3,2 C 3,1 km/h (1 Bft)
17.01.2016 20:30 -3,7 C 21,9 C -2,5 C -3,3 C -3,3 C 0,4 C 88 % 91 % 0 % 1025,1 hPa 0,0 l/m 0,0 km/h (0 Bft) S-SO 157 0 min -5,4 C -3,3 C 0,0 km/h (0 Bft)
17.01.2016 20:35 -3,9 C 21,9 C -2,7 C -3,4 C -3,4 C 0,5 C 88 % 91 % 0 % 1025,1 hPa 0,0 l/m 0,0 km/h (0 Bft) O-NO 67 0 min -5,6 C -3,4 C 0,0 km/h (0 Bft)
17.01.2016 20:40 -4,0 C 22,0 C -2,9 C -3,5 C -3,5 C 0,5 C 87 % 90 % 0 % 1025,1 hPa 0,0 l/m 0,0 km/h (0 Bft) S-SW 202 0 min -5,8 C -3,5 C 0,0 km/h (0 Bft)
17.01.2016 20:45 -4,1 C 22,0 C -2,9 C -3,7 C -3,7 C 0,4 C 87 % 91 % 0 % 1025,1 hPa 0,0 l/m 0,0 km/h (0 Bft) S 180 0 min -5,9 C -3,7 C 0,0 km/h (0 Bft)
17.01.2016 20:50 -4,1 C 22,0 C -3,1 C -3,9 C -3,9 C 0,2 C 87 % 91 % 0 % 1025,1 hPa 0,0 l/m 0,0 km/h (0 Bft) S-SW 202 0 min -5,9 C -3,9 C 0,0 km/h (0 Bft)
17.01.2016 20:55 -4,1 C 21,9 C -3,2 C -4,0 C -4,0 C 0,1 C 87 % 91 % 0 % 1025,1 hPa 0,0 l/m 0,2 km/h (0 Bft) W 270 0 min -5,9 C -4,0 C 0,0 km/h (0 Bft)
17.01.2016 21:00 -4,1 C 21,9 C -3,1 C -4,0 C -4,0 C 0,1 C 87 % 91 % 0 % 1025,1 hPa 0,0 l/m 0,6 km/h (0 Bft) W-SW 247 0 min -5,9 C -4,0 C 0,0 km/h (0 Bft)
17.01.2016 21:05 -4,3 C 21,9 C -2,9 C -3,9 C -3,9 C 0,4 C 87 % 91 % 0 % 1025,1 hPa 0,0 l/m 0,5 km/h (0 Bft) S 180 0 min -6,1 C -3,9 C 0,0 km/h (0 Bft)
17.01.2016 21:10 -4,3 C 21,9 C -2,9 C -3,7 C -3,7 C 0,6 C 88 % 90 % 0 % 1025,1 hPa 0,0 l/m 0,0 km/h (0 Bft) W-SW 247 0 min -6,0 C -3,7 C 0,0 km/h (0 Bft)
17.01.2016 21:15 -4,3 C 21,9 C -2,9 C -3,6 C -3,6 C 0,7 C 88 % 90 % 0 % 1025,1 hPa 0,0 l/m 0,6 km/h (0 Bft) SW 225 0 min -6,0 C -3,6 C 2,1 km/h (1 Bft)
17.01.2016 21:20 -4,1 C 22,0 C -2,9 C -3,5 C -3,5 C 0,6 C 88 % 90 % 0 % 1025,1 hPa 0,0 l/m 1,3 km/h (1 Bft) S-SW 202 0 min -5,8 C -3,5 C 0,0 km/h (0 Bft)
17.01.2016 21:25 -4,3 C 22,0 C -2,9 C -3,5 C -3,5 C 0,8 C 88 % 90 % 0 % 1025,1 hPa 0,0 l/m 0,8 km/h (0 Bft) S-SW 202 0 min -6,0 C -3,5 C 0,0 km/h (0 Bft)
17.01.2016 21:30 -4,3 C 21,9 C -2,9 C -3,5 C -3,5 C 0,8 C 88 % 90 % 0 % 1024,9 hPa 0,0 l/m 0,5 km/h (0 Bft) W-SW 247 0 min -6,0 C -3,5 C 0,0 km/h (0 Bft)
17.01.2016 21:35 -4,3 C 21,9 C -2,9 C -3,5 C -3,5 C 0,8 C 88 % 90 % 0 % 1024,9 hPa 0,0 l/m 0,5 km/h (0 Bft) W-SW 247 0 min -6,0 C -3,5 C 0,0 km/h (0 Bft)
17.01.2016 21:41 -4,3 C 22,0 C -2,9 C -3,5 C -3,5 C 0,8 C 88 % 90 % 0 % 1024,9 hPa 0,0 l/m 0,2 km/h (0 Bft) N 0 0 min -6,0 C -3,5 C 0,0 km/h (0 Bft)
17.01.2016 21:50 -4,3 C 22,0 C -2,9 C -3,5 C -3,5 C 0,8 C 88 % 90 % 0 % 1025,1 hPa 0,0 l/m 0,0 km/h (0 Bft) W-NW 292 0 min -6,0 C -3,5 C 0,0 km/h (0 Bft)
17.01.2016 21:55 -4,3 C 22,0 C -2,8 C -3,5 C -3,5 C 0,8 C 88 % 91 % 0 % 1025,1 hPa 0,0 l/m 0,0 km/h (0 Bft) O-NO 67 0 min -6,0 C -3,5 C 0,0 km/h (0 Bft)
17.01.2016 22:00 -4,3 C 22,0 C -2,8 C -3,5 C -3,5 C 0,8 C 88 % 91 % 0 % 1025,1 hPa 0,0 l/m 0,0 km/h (0 Bft) N 360 0 min -6,0 C -3,5 C 0,0 km/h (0 Bft)
17.01.2016 22:05 -4,1 C 22,0 C -2,8 C -3,4 C -3,4 C 0,7 C 88 % 91 % 0 % 1025,1 hPa 0,0 l/m 0,0 km/h (0 Bft) N-NW 337 0 min -5,8 C -3,4 C 0,0 km/h (0 Bft)
17.01.2016 22:10 -4,1 C 22,0 C -2,8 C -3,4 C -3,4 C 0,7 C 88 % 91 % 0 % 1025,1 hPa 0,0 l/m 0,0 km/h (0 Bft) O-NO 67 0 min -5,8 C -3,4 C 0,0 km/h (0 Bft)
17.01.2016 22:15 -4,1 C 22,0 C -2,8 C -3,4 C -3,4 C 0,7 C 88 % 91 % 0 % 1025,1 hPa 0,0 l/m 0,0 km/h (0 Bft) O-NO 67 0 min -5,8 C -3,4 C 0,0 km/h (0 Bft)
17.01.2016 22:20 -4,1 C 22,0 C -2,7 C -3,4 C -3,4 C 0,7 C 88 % 91 % 0 % 1025,1 hPa 0,0 l/m 0,2 km/h (0 Bft) W-SW 247 0 min -5,8 C -3,4 C 2,1 km/h (1 Bft)
17.01.2016 22:25 -4,2 C 22,0 C -2,5 C -3,4 C -3,4 C 0,8 C 88 % 91 % 0 % 1025,1 hPa 0,0 l/m 0,3 km/h (0 Bft) W-SW 247 0 min -5,9 C -3,4 C 0,0 km/h (0 Bft)
17.01.2016 22:30 -4,1 C 22,0 C -2,5 C -3,3 C -3,3 C 0,8 C 88 % 91 % 0 % 1025,6 hPa 0,0 l/m 0,2 km/h (0 Bft) SW 225 0 min -5,8 C -3,3 C 0,0 km/h (0 Bft)
17.01.2016 22:35 -4,1 C 22,0 C -2,5 C -3,3 C -3,3 C 0,8 C 88 % 90 % 0 % 1025,6 hPa 0,0 l/m 0,0 km/h (0 Bft) SW 225 0 min -5,8 C -3,3 C 1,8 km/h (1 Bft)
17.01.2016 22:40 -4,1 C 22,0 C -2,5 C -3,2 C -3,2 C 0,9 C 88 % 90 % 0 % 1025,6 hPa 0,0 l/m 0,3 km/h (0 Bft) W-SW 247 0 min -5,8 C -3,2 C 0,0 km/h (0 Bft)
17.01.2016 22:45 -4,1 C 22,0 C -2,5 C -3,2 C -3,2 C 0,9 C 88 % 90 % 0 % 1025,6 hPa 0,0 l/m 0,5 km/h (0 Bft) W-SW 247 0 min -5,8 C -3,2 C 0,0 km/h (0 Bft)
17.01.2016 22:50 -4,1 C 22,0 C -2,5 C -3,2 C -3,2 C 0,9 C 88 % 90 % 0 % 1025,4 hPa 0,0 l/m 0,3 km/h (0 Bft) W-SW 247 0 min -5,8 C -3,2 C 0,0 km/h (0 Bft)
17.01.2016 22:55 -4,1 C 22,0 C -2,6 C -3,3 C -3,3 C 0,8 C 88 % 91 % 0 % 1025,4 hPa 0,0 l/m 0,2 km/h (0 Bft) NO 45 0 min -5,8 C -3,3 C 0,0 km/h (0 Bft)
17.01.2016 23:00 -4,1 C 22,0 C -2,5 C -3,3 C -3,3 C 0,8 C 88 % 91 % 0 % 1025,4 hPa 0,0 l/m 0,0 km/h (0 Bft) W-SW 247 0 min -5,8 C -3,3 C 0,0 km/h (0 Bft)
17.01.2016 23:05 -4,1 C 22,0 C -2,5 C -3,4 C -3,4 C 0,7 C 88 % 90 % 0 % 1025,4 hPa 0,0 l/m 0,2 km/h (0 Bft) W-SW 247 0 min -5,8 C -3,4 C 1,9 km/h (1 Bft)
17.01.2016 23:10 -4,1 C 22,0 C -2,5 C -3,4 C -3,4 C 0,7 C 88 % 90 % 0 % 1025,4 hPa 0,0 l/m 0,6 km/h (0 Bft) SW 225 0 min -5,8 C -3,4 C 0,0 km/h (0 Bft)
17.01.2016 23:15 -4,1 C 22,0 C -2,7 C -3,3 C -3,3 C 0,8 C 88 % 91 % 0 % 1025,4 hPa 0,0 l/m 0,6 km/h (0 Bft) SW 225 0 min -5,8 C -3,3 C 0,0 km/h (0 Bft)
17.01.2016 23:20 -4,1 C 22,0 C -2,9 C -3,6 C -3,6 C 0,5 C 88 % 90 % 0 % 1025,4 hPa 0,0 l/m 0,3 km/h (0 Bft) SW 225 0 min -5,8 C -3,6 C 0,0 km/h (0 Bft)
17.01.2016 23:25 -4,1 C 22,0 C -2,9 C -3,8 C -3,8 C 0,3 C 88 % 90 % 0 % 1025,4 hPa 0,0 l/m 0,3 km/h (0 Bft) S-SW 202 0 min -5,8 C -3,8 C 0,0 km/h (0 Bft)
17.01.2016 23:30 -4,3 C 22,0 C -3,2 C -4,0 C -4,0 C 0,3 C 88 % 90 % 0 % 1025,1 hPa 0,0 l/m 0,3 km/h (0 Bft) W-SW 247 0 min -6,0 C -4,0 C 2,1 km/h (1 Bft)
17.01.2016 23:35 -4,5 C 22,0 C -3,2 C -4,0 C -4,0 C 0,5 C 87 % 90 % 0 % 1025,1 hPa 0,0 l/m 0,3 km/h (0 Bft) S 180 0 min -6,3 C -4,0 C 0,0 km/h (0 Bft)
17.01.2016 23:40 -4,5 C 22,0 C -3,3 C -4,2 C -4,2 C 0,3 C 87 % 90 % 0 % 1025,1 hPa 0,0 l/m 0,2 km/h (0 Bft) O-NO 67 0 min -6,3 C -4,2 C 0,0 km/h (0 Bft)
17.01.2016 23:45 -4,5 C 22,0 C -3,3 C -4,1 C -4,1 C 0,4 C 87 % 90 % 0 % 1025,1 hPa 0,0 l/m 0,0 km/h (0 Bft) O-NO 67 0 min -6,3 C -4,1 C 0,0 km/h (0 Bft)
17.01.2016 23:50 -4,6 C 22,0 C -3,3 C -4,1 C -4,1 C 0,5 C 88 % 90 % 0 % 1025,1 hPa 0,0 l/m 0,0 km/h (0 Bft) O-NO 67 0 min -6,3 C -4,1 C 0,0 km/h (0 Bft)
17.01.2016 23:55 -4,5 C 22,0 C -3,3 C -4,0 C -4,0 C 0,5 C 88 % 90 % 0 % 1025,1 hPa 0,0 l/m 0,0 km/h (0 Bft) W 270 0 min -6,2 C -4,0 C 0,0 km/h (0 Bft)
_ Min-Zeit 23:50 10:45 23:40 23:40 23:40 00:30 11:55 08:05 00:00 00:10 - 00:00 - - - 23:35 23:40 00:00
Minimum _ -4,6 C 21,8 C -3,3 C -4,2 C -4,2 C 0,0 C 84 % 89 % 0 % 1015,9 hPa - 0,0 km/h (0 Bft) - - - -6,3 C -4,2 C 0,0 km/h (0 Bft)
_ Max-Zeit 00:50 01:45 11:40 12:20 12:20 11:10 06:20 10:40 11:10 22:30 00:00 00:35 - - 15:50 01:55 12:20 01:45
Maximum _ -1,7 C 22,8 C 0,3 C 0,7 C 0,7 C 2,6 C 89 % 91 % 68 % 1025,6 hPa 0,0 l/m 4,0 km/h
W (1 Bft)
- - 9 min -3,6 C 0,7 C 11,1 km/h
W-SW (2 Bft)
Durchschnitt _ -2,9 C 22,1 C -1,4 C -1,8 C -1,8 C 1,1 C 87 % 90 % 15 % 1020,5 hPa #0,0 l/m 1,1 km/h (1 Bft) SW - #1:25 h -4,8 C -1,8 C 1,6 km/h (1 Bft)
2016 www.wetterstation-wechselburg.de